Terminal Aerodrome Forecast
Issued by NWS Knoxville/Tri Cities, TN

Home | Current Version | Previous Version | Text Only | Print | Product List | Glossary On
Versions: 1 2 3 4 5 6 7 8 9 10 11 12 13
000
FTUS44 KMRX 282320
TAFTYS
TAF
KTYS 282320Z 2900/2924 23010G20KT P6SM SCT025 BKN060
      TEMPO 2900/2904 6SM -RA BKN025
     FM290400 24004KT P6SM OVC020
     FM291500 24006KT P6SM BKN020
     FM291700 24008KT P6SM SCT040 BKN100=

USA.gov is the U.S. government's official web portal to all federal, state and local government web resources and services.